Time;durP1;ratioP1;P1;durP2;ratioP2;P2;SDS_P1;SDS_P2;PMS_P1;PMS_P2;Temp;Humidity;BMP_temperature;BMP_pressure;BME280_temperature;BME280_humidity;BME280_pressure;Samples;Min_cycle;Max_cycle;Signal;HPM_P1;HPM_P2
2021/11/11 00:01:39;;;;;;;25.23;13.45;;;;;;;9.56;83.13;102509.28;4956758;29;20471;-68
2021/11/11 00:04:06;;;;;;;28.60;13.52;;;;;;;9.52;82.94;102504.94;4957775;28;20038;-68
2021/11/11 00:06:31;;;;;;;27.65;13.70;;;;;;;9.51;83.63;102500.53;4956638;29;20394;-67
2021/11/11 00:08:57;;;;;;;25.55;13.95;;;;;;;9.48;83.64;102504.09;4957741;28;20098;-68
2021/11/11 00:11:22;;;;;;;24.73;13.80;;;;;;;9.47;83.52;102497.06;4956827;29;20075;-68
2021/11/11 00:13:47;;;;;;;30.33;15.18;;;;;;;9.44;84.17;102493.59;4957972;28;20531;-67
2021/11/11 00:16:13;;;;;;;30.25;15.45;;;;;;;9.43;84.84;102497.16;4956508;29;20407;-68
2021/11/11 00:18:38;;;;;;;31.60;15.65;;;;;;;9.43;84.36;102491.84;4956470;29;20118;-68
2021/11/11 00:21:06;;;;;;;31.95;14.90;;;;;;;9.43;84.52;102495.34;4957506;28;20023;-67
2021/11/11 00:23:31;;;;;;;26.85;14.75;;;;;;;9.46;84.42;102495.34;4956562;29;20089;-67
2021/11/11 00:25:57;;;;;;;37.72;16.23;;;;;;;9.51;84.38;102496.16;4957591;28;20031;-67
2021/11/11 00:28:22;;;;;;;31.25;14.98;;;;;;;9.48;84.57;102498.81;4956546;29;20074;-68
2021/11/11 00:30:47;;;;;;;28.98;14.38;;;;;;;9.51;84.52;102504.09;4957442;28;20427;-68
2021/11/11 00:33:13;;;;;;;30.35;14.40;;;;;;;9.53;84.50;102496.13;4956298;29;20038;-68
2021/11/11 00:35:38;;;;;;;37.65;15.18;;;;;;;9.49;84.33;102505.00;4957265;28;20030;-66
2021/11/11 00:38:04;;;;;;;29.15;15.15;;;;;;;9.45;84.71;102497.97;4956011;29;20027;-68
2021/11/11 00:40:31;;;;;;;33.33;15.13;;;;;;;9.41;85.44;102502.47;4955684;28;20098;-68
2021/11/11 00:43:00;;;;;;;32.17;14.02;;;;;;;9.43;85.75;102503.28;4960574;28;20514;-68
2021/11/11 00:45:26;;;;;;;32.05;15.15;;;;;;;9.41;86.00;102504.22;4974460;28;20109;-68
2021/11/11 00:47:51;;;;;;;27.20;14.43;;;;;;;9.42;85.41;102503.31;4975268;28;20054;-68
2021/11/11 00:50:20;;;;;;;33.78;15.50;;;;;;;9.40;85.95;102497.16;4975588;28;20031;-68
2021/11/11 00:52:47;;;;;;;28.40;14.25;;;;;;;9.41;85.93;102499.81;4973620;28;20498;-67
2021/11/11 00:55:12;;;;;;;33.20;14.77;;;;;;;9.42;86.26;102506.81;4975344;28;20031;-68
2021/11/11 00:57:38;;;;;;;28.02;12.95;;;;;;;9.48;85.67;102508.53;4955797;28;20043;-68
2021/11/11 01:00:08;;;;;;;34.00;15.48;;;;;;;9.44;86.26;102512.13;4975051;28;20038;-66
2021/11/11 01:02:35;;;;;;;31.50;14.70;;;;;;;9.47;86.15;102514.72;4973610;28;20022;-68
2021/11/11 01:05:01;;;;;;;27.10;14.02;;;;;;;9.50;85.63;102504.97;4958048;28;20023;-68
2021/11/11 01:07:27;;;;;;;26.23;13.80;;;;;;;9.48;85.42;102506.75;4973318;28;20050;-68
2021/11/11 01:09:52;;;;;;;30.35;14.32;;;;;;;9.50;85.84;102506.72;4974940;28;20372;-68
2021/11/11 01:12:18;;;;;;;28.23;14.48;;;;;;;9.48;85.78;102509.41;4974728;28;20058;-68
2021/11/11 01:14:43;;;;;;;28.80;13.93;;;;;;;9.46;86.19;102508.56;4973393;28;20034;-68
2021/11/11 01:17:09;;;;;;;27.52;14.30;;;;;;;9.48;85.98;102504.09;4973194;28;20113;-68
2021/11/11 01:19:34;;;;;;;26.98;15.63;;;;;;;9.48;85.62;102506.75;4974152;28;20030;-67
2021/11/11 01:22:00;;;;;;;29.88;15.52;;;;;;;9.50;85.78;102498.78;4974974;28;20395;-68
2021/11/11 01:24:26;;;;;;;28.85;14.52;;;;;;;9.46;85.73;102507.66;4973395;28;20463;-68
2021/11/11 01:26:52;;;;;;;30.80;15.43;;;;;;;9.42;86.76;102506.81;4974311;28;20035;-68
2021/11/11 01:29:17;;;;;;;33.10;16.63;;;;;;;9.40;86.73;102499.81;4972982;28;20058;-68
2021/11/11 01:31:42;;;;;;;34.58;16.60;;;;;;;9.35;87.18;102492.81;4974551;28;20483;-68
2021/11/11 01:34:08;;;;;;;32.08;15.80;;;;;;;9.35;86.95;102487.53;4972802;28;20115;-68
2021/11/11 01:36:33;;;;;;;35.08;16.25;;;;;;;9.37;87.03;102486.63;4957087;28;20023;-68
2021/11/11 01:38:59;;;;;;;30.60;15.77;;;;;;;9.34;87.00;102477.84;4972923;28;20031;-68
2021/11/11 01:41:24;;;;;;;33.92;16.48;;;;;;;9.33;87.70;102477.88;4974164;28;20489;-68
2021/11/11 01:43:49;;;;;;;32.70;16.63;;;;;;;9.37;87.53;102478.72;4974362;28;20336;-68
2021/11/11 01:46:15;;;;;;;30.20;16.35;;;;;;;9.39;87.06;102479.56;4972672;28;20570;-68
2021/11/11 01:48:40;;;;;;;32.05;16.27;;;;;;;9.40;87.05;102468.06;4974182;28;20118;-68
2021/11/11 01:51:06;;;;;;;32.33;16.55;;;;;;;9.41;86.88;102459.25;4972519;28;20030;-68
2021/11/11 01:53:33;;;;;;;31.70;16.05;;;;;;;9.43;86.72;102470.69;4974340;28;20034;-68
2021/11/11 01:55:58;;;;;;;30.88;15.57;;;;;;;9.40;86.64;102465.44;4972490;28;20099;-68
2021/11/11 01:58:23;;;;;;;28.65;16.00;;;;;;;9.39;86.55;102461.94;4962576;28;20057;-68
2021/11/11 02:00:51;;;;;;;30.17;16.15;;;;;;;9.41;86.61;102460.16;4955840;28;20043;-68
2021/11/11 02:03:18;;;;;;;30.40;16.13;;;;;;;9.42;86.28;102466.31;4954743;29;20467;-68
2021/11/11 02:05:45;;;;;;;29.63;15.18;;;;;;;9.40;86.92;102461.03;4955085;28;20045;-68
2021/11/11 02:08:11;;;;;;;30.48;14.73;;;;;;;9.43;86.09;102454.84;4954967;28;20023;-68
2021/11/11 02:10:37;;;;;;;29.25;14.73;;;;;;;9.42;86.21;102448.66;4955722;28;20535;-67
2021/11/11 02:13:05;;;;;;;27.00;15.13;;;;;;;9.44;85.81;102451.31;4954597;29;20035;-68
2021/11/11 02:15:31;;;;;;;30.67;14.43;;;;;;;9.46;85.32;102455.66;4954862;29;20042;-68
2021/11/11 02:17:58;;;;;;;29.67;14.05;;;;;;;9.48;85.30;102447.72;4955732;28;20038;-68
2021/11/11 02:20:26;;;;;;;25.45;13.68;;;;;;;9.51;85.48;102451.19;4954533;29;20066;-68
2021/11/11 02:22:53;;;;;;;27.60;14.32;;;;;;;9.51;85.54;102447.66;4955755;28;20098;-68
2021/11/11 02:25:23;;;;;;;30.73;14.95;;;;;;;9.52;84.96;102457.34;4954819;29;20023;-68
2021/11/11 02:27:53;;;;;;;25.23;13.88;;;;;;;9.54;85.00;102450.28;4955400;28;20110;-68
2021/11/11 02:30:20;;;;;;;30.88;14.52;;;;;;;9.53;85.05;102461.75;4954512;29;20506;-68
2021/11/11 02:32:46;;;;;;;27.83;14.20;;;;;;;9.52;85.16;102450.28;4955498;28;20399;-67
2021/11/11 02:35:14;;;;;;;27.55;13.45;;;;;;;9.54;85.36;102454.66;4954339;29;20027;-68
2021/11/11 02:37:41;;;;;;;30.58;15.18;;;;;;;9.51;85.34;102455.59;4954720;28;20031;-67
2021/11/11 02:40:10;;;;;;;29.30;14.07;;;;;;;9.54;85.47;102454.66;4954797;28;20110;-68
2021/11/11 02:42:36;;;;;;;30.90;13.95;;;;;;;9.53;85.35;102443.22;4955212;28;20114;-67
2021/11/11 02:45:06;;;;;;;28.80;14.18;;;;;;;9.57;85.23;102444.06;4954214;28;20082;-67
2021/11/11 02:47:33;;;;;;;27.60;12.75;;;;;;;9.57;84.90;102447.56;4954646;29;20038;-67
2021/11/11 02:49:58;;;;;;;28.15;13.55;;;;;;;9.55;85.37;102449.34;4955222;28;20113;-68
2021/11/11 02:52:24;;;;;;;32.38;13.73;;;;;;;9.55;85.92;102443.19;4954163;28;20055;-68
2021/11/11 02:54:51;;;;;;;30.42;13.85;;;;;;;9.53;85.91;102443.22;4955630;28;20031;-68
2021/11/11 02:57:25;;;;;;;27.35;13.63;;;;;;;9.50;85.61;102440.59;4954215;29;20452;-68
2021/11/11 02:59:56;;;;;;;27.00;13.65;;;;;;;9.50;85.92;102448.53;4955169;28;20038;-68
2021/11/11 03:02:24;;;;;;;24.92;13.18;;;;;;;9.48;85.90;102448.56;4956081;28;20031;-68
2021/11/11 03:04:50;;;;;;;24.20;12.90;;;;;;;9.52;85.93;102446.75;4971252;28;20109;-68
2021/11/11 03:07:15;;;;;;;32.15;14.90;;;;;;;9.51;85.99;102453.84;4974337;28;20411;-68
2021/11/11 03:09:43;;;;;;;27.50;13.35;;;;;;;9.47;86.26;102454.75;4975664;28;20031;-68
2021/11/11 03:12:08;;;;;;;24.13;13.40;;;;;;;9.46;86.39;102446.84;4958917;28;20074;-67
2021/11/11 03:14:34;;;;;;;32.30;13.95;;;;;;;9.49;86.35;102457.41;4957563;29;20487;-68
2021/11/11 03:17:01;;;;;;;27.02;13.63;;;;;;;9.47;86.52;102446.81;4957766;29;20023;-68
2021/11/11 03:19:26;;;;;;;27.48;13.30;;;;;;;9.46;86.45;102453.03;4957861;29;20045;-68
2021/11/11 03:21:51;;;;;;;30.35;13.82;;;;;;;9.48;86.01;102453.84;4958564;28;20112;-68
2021/11/11 03:24:17;;;;;;;27.85;13.13;;;;;;;9.44;86.27;102454.81;4958887;28;20034;-68
2021/11/11 03:26:42;;;;;;;30.73;13.27;;;;;;;9.43;86.25;102458.34;4957523;29;20031;-68
2021/11/11 03:29:07;;;;;;;29.15;14.52;;;;;;;9.42;86.54;102451.28;4957292;29;20035;-68
2021/11/11 03:31:33;;;;;;;30.55;13.75;;;;;;;9.43;86.41;102454.84;4958413;28;20041;-68
2021/11/11 03:33:58;;;;;;;30.40;13.85;;;;;;;9.41;86.97;102457.50;4957464;28;20031;-68
2021/11/11 03:36:23;;;;;;;32.25;14.68;;;;;;;9.41;86.34;102453.97;4957332;29;20123;-68
2021/11/11 03:38:48;;;;;;;29.08;13.85;;;;;;;9.39;87.04;102458.44;4940141;29;20033;-68
2021/11/11 03:41:14;;;;;;;28.65;14.48;;;;;;;9.34;86.84;102461.13;4957328;29;20035;-67
2021/11/11 03:43:39;;;;;;;28.88;14.23;;;;;;;9.37;87.33;102460.19;4959199;28;20051;-68
2021/11/11 03:46:05;;;;;;;28.90;14.38;;;;;;;9.40;87.16;102457.50;4957151;29;20135;-68
2021/11/11 03:48:30;;;;;;;29.17;14.50;;;;;;;9.37;86.69;102455.78;4957231;29;20364;-68
2021/11/11 03:50:56;;;;;;;33.03;15.43;;;;;;;9.34;86.64;102459.34;4939883;29;20101;-68
2021/11/11 03:53:21;;;;;;;30.67;14.25;;;;;;;9.35;86.87;102453.16;4958325;28;20031;-67
2021/11/11 03:55:47;;;;;;;29.35;14.15;;;;;;;9.37;86.78;102453.13;4958178;28;20032;-67
2021/11/11 03:58:15;;;;;;;32.75;14.70;;;;;;;9.33;87.59;102454.06;4957009;29;20075;-68
2021/11/11 04:00:42;;;;;;;35.60;15.25;;;;;;;9.32;87.17;102453.22;4956972;29;20035;-68
2021/11/11 04:03:08;;;;;;;31.02;14.57;;;;;;;9.33;87.66;102451.44;4957949;28;20026;-67
2021/11/11 04:05:34;;;;;;;29.50;14.13;;;;;;;9.36;86.88;102454.06;4962341;28;20030;-68
2021/11/11 04:07:59;;;;;;;25.48;14.32;;;;;;;9.37;87.30;102462.84;4976076;28;20082;-68
2021/11/11 04:10:24;;;;;;;33.38;14.85;;;;;;;9.37;87.11;102460.19;4976112;28;20042;-68
2021/11/11 04:12:50;;;;;;;31.40;14.88;;;;;;;9.34;87.63;102469.06;4976175;28;20034;-67
2021/11/11 04:15:15;;;;;;;27.17;14.65;;;;;;;9.35;87.66;102466.38;4974563;28;20026;-68
2021/11/11 04:17:41;;;;;;;32.47;15.98;;;;;;;9.38;87.29;102468.09;4973890;28;20113;-68
2021/11/11 04:20:09;;;;;;;34.45;15.98;;;;;;;9.37;87.27;102482.22;4975719;28;20030;-68
2021/11/11 04:22:34;;;;;;;29.48;16.23;;;;;;;9.37;87.53;102478.72;4975956;28;20023;-68
2021/11/11 04:25:02;;;;;;;30.70;15.00;;;;;;;9.38;87.32;102480.47;4974537;28;20023;-67
2021/11/11 04:27:40;;;;;;;30.65;16.45;;;;;;;9.32;87.77;102465.53;4974407;28;20094;-67
2021/11/11 04:32:41;;;;;;;31.98;15.65;;;;;;;9.29;88.02;102460.31;4975893;28;20509;-66
2021/11/11 04:35:07;;;;;;;28.60;15.43;;;;;;;9.32;88.18;102465.53;4973937;28;20035;-67
2021/11/11 04:43:11;;;;;;;33.95;16.50;;;;;;;9.27;87.97;102460.34;4915925;29;20409;-67
2021/11/11 04:51:50;;;;;;;33.95;16.65;;;;;;;9.25;88.46;102467.41;4915970;29;20039;-68
2021/11/11 05:04:31;;;;;;;33.13;15.52;;;;;;;9.29;88.42;102461.16;4897526;29;20041;-68
2021/11/11 05:06:56;;;;;;;37.53;17.50;;;;;;;9.30;88.15;102462.94;4896545;29;20032;-67
2021/11/11 05:09:22;;;;;;;35.38;16.48;;;;;;;9.30;88.37;102464.72;4897609;29;20156;-68
2021/11/11 05:11:48;;;;;;;32.88;16.42;;;;;;;9.29;88.39;102463.81;4903763;29;20561;-67
2021/11/11 05:14:13;;;;;;;32.95;16.10;;;;;;;9.28;89.02;102463.84;4915495;29;20040;-68
2021/11/11 05:16:39;;;;;;;31.98;16.23;;;;;;;9.30;88.38;102470.00;4924114;29;20043;-68
2021/11/11 05:19:04;;;;;;;32.05;16.83;;;;;;;9.27;88.53;102462.09;4955502;29;20111;-68
2021/11/11 05:21:29;;;;;;;30.52;16.65;;;;;;;9.25;88.31;102467.41;4956525;28;20077;-67
2021/11/11 05:23:55;;;;;;;36.00;16.92;;;;;;;9.26;88.64;102474.44;4955323;28;20031;-68
2021/11/11 05:26:20;;;;;;;33.03;15.80;;;;;;;9.26;88.29;102468.25;4956514;28;20039;-67
2021/11/11 05:28:46;;;;;;;33.25;16.58;;;;;;;9.31;88.45;102471.72;4955360;29;20027;-68
2021/11/11 05:31:11;;;;;;;30.05;16.67;;;;;;;9.31;88.40;102475.25;4955792;28;20027;-68
2021/11/11 05:33:37;;;;;;;36.78;17.52;;;;;;;9.30;88.44;102476.16;4954658;29;20446;-68
2021/11/11 05:36:02;;;;;;;31.67;17.80;;;;;;;9.31;88.71;102466.44;4956306;28;20035;-67
2021/11/11 05:38:27;;;;;;;31.90;17.30;;;;;;;9.34;88.71;102469.06;4955332;29;20467;-67
2021/11/11 05:40:53;;;;;;;35.55;17.23;;;;;;;9.36;87.96;102467.28;4969668;28;20470;-67
2021/11/11 05:43:18;;;;;;;30.75;16.70;;;;;;;9.35;87.93;102476.97;4955551;28;20047;-69
2021/11/11 05:45:43;;;;;;;32.20;15.73;;;;;;;9.36;88.28;102472.56;4954981;29;20023;-69
2021/11/11 05:48:09;;;;;;;32.83;16.88;;;;;;;9.36;88.22;102480.50;4955470;28;20063;-68
2021/11/11 05:50:36;;;;;;;35.40;16.55;;;;;;;9.38;88.32;102469.88;4954903;29;20365;-68
2021/11/11 05:53:02;;;;;;;28.85;16.60;;;;;;;9.37;88.14;102474.28;4956191;28;20035;-68
2021/11/11 05:55:28;;;;;;;33.88;17.08;;;;;;;9.40;88.46;102471.63;4955066;29;20023;-69
2021/11/11 05:57:53;;;;;;;33.17;16.58;;;;;;;9.38;88.38;102473.41;4956157;28;20360;-70
2021/11/11 06:00:19;;;;;;;34.90;16.80;;;;;;;9.37;88.76;102473.41;4973745;28;20054;-70
2021/11/11 06:02:45;;;;;;;33.28;17.33;;;;;;;9.38;88.82;102475.19;4969713;28;20025;-68
2021/11/11 06:05:10;;;;;;;35.28;16.92;;;;;;;9.37;89.23;102468.13;4967112;28;20163;-69
2021/11/11 06:07:36;;;;;;;31.67;17.27;;;;;;;9.39;89.17;102476.94;4973751;28;20072;-68
2021/11/11 06:10:03;;;;;;;33.65;17.42;;;;;;;9.39;89.21;102477.78;4955764;28;20027;-68
2021/11/11 06:12:28;;;;;;;31.00;17.05;;;;;;;9.40;88.95;102473.38;4955647;28;20090;-68
2021/11/11 06:14:54;;;;;;;35.83;17.40;;;;;;;9.44;89.13;102475.09;4936950;29;20043;-68
2021/11/11 06:17:19;;;;;;;31.25;17.13;;;;;;;9.45;88.94;102475.06;4963590;28;20085;-66
2021/11/11 06:19:46;;;;;;;34.53;20.75;;;;;;;9.45;88.92;102475.06;4962578;28;20463;-68
2021/11/11 06:22:11;;;;;;;37.90;17.73;;;;;;;9.43;89.75;102479.50;4968713;28;20031;-68
2021/11/11 06:24:37;;;;;;;40.47;17.55;;;;;;;9.46;89.29;102475.94;4973069;28;20034;-68
2021/11/11 06:27:03;;;;;;;29.95;17.92;;;;;;;9.44;89.17;102486.53;4974077;28;20015;-67
2021/11/11 06:29:28;;;;;;;30.23;17.55;;;;;;;9.41;89.56;102473.38;4963549;28;20487;-68
2021/11/11 06:31:53;;;;;;;34.65;18.52;;;;;;;9.42;89.89;102487.47;4954352;29;20384;-68
2021/11/11 06:34:19;;;;;;;31.60;17.70;;;;;;;9.44;89.66;102489.19;4954228;28;20220;-68
2021/11/11 06:36:44;;;;;;;32.85;16.98;;;;;;;9.46;89.95;102495.34;4969774;28;20057;-65
2021/11/11 06:39:10;;;;;;;36.05;18.08;;;;;;;9.49;90.08;102494.41;4973876;28;20046;-66
2021/11/11 06:41:35;;;;;;;38.50;17.70;;;;;;;9.51;89.61;102498.78;4959861;28;20111;-69
2021/11/11 06:44:01;;;;;;;38.60;18.80;;;;;;;9.51;90.08;102504.09;4957965;29;20043;-68
2021/11/11 06:46:26;;;;;;;40.17;18.75;;;;;;;9.58;90.13;102503.97;4959892;28;20035;-67
2021/11/11 06:48:51;;;;;;;35.13;18.38;;;;;;;9.57;90.02;102503.09;4962340;28;20027;-68
2021/11/11 06:51:17;;;;;;;42.20;19.88;;;;;;;9.58;90.36;102498.69;4958522;28;20095;-67
2021/11/11 06:53:42;;;;;;;37.42;18.42;;;;;;;9.63;89.68;102503.03;4958190;28;20027;-66
2021/11/11 06:56:08;;;;;;;37.20;19.35;;;;;;;9.64;89.85;102512.72;4957807;29;20036;-66
2021/11/11 06:58:33;;;;;;;31.80;18.13;;;;;;;9.63;90.41;102510.97;4976284;28;20027;-67
2021/11/11 07:01:01;;;;;;;34.72;19.45;;;;;;;9.63;90.64;102520.66;4977479;28;20027;-66
2021/11/11 07:03:27;;;;;;;36.25;19.00;;;;;;;9.66;89.94;102515.34;4977537;28;20027;-67
2021/11/11 07:05:54;;;;;;;36.08;18.35;;;;;;;9.67;89.63;102519.72;4976461;28;20058;-67
2021/11/11 07:08:19;;;;;;;36.50;19.05;;;;;;;9.60;90.21;102520.69;4975946;28;20110;-67
2021/11/11 07:10:48;;;;;;;36.08;19.23;;;;;;;9.61;90.37;102519.81;4958165;29;20035;-67
2021/11/11 07:13:15;;;;;;;37.22;19.17;;;;;;;9.62;90.35;102529.50;4968389;28;20450;-68
2021/11/11 07:15:41;;;;;;;33.53;19.48;;;;;;;9.63;90.33;102532.13;4977402;28;20026;-66
2021/11/11 07:18:09;;;;;;;37.90;19.08;;;;;;;9.65;90.22;102533.00;4977426;28;20039;-64
2021/11/11 07:20:36;;;;;;;34.42;18.15;;;;;;;9.65;90.24;102527.69;4976474;28;20031;-69
2021/11/11 07:23:04;;;;;;;34.25;19.45;;;;;;;9.64;90.71;102527.69;4975958;28;20051;-67
2021/11/11 07:25:31;;;;;;;38.10;19.23;;;;;;;9.66;90.80;102531.19;4977237;28;20030;-68
2021/11/11 07:27:57;;;;;;;37.53;19.95;;;;;;;9.72;90.71;102536.41;4976849;28;20522;-67
2021/11/11 07:30:22;;;;;;;37.17;18.88;;;;;;;9.75;90.28;102538.16;4971005;28;20042;-67
2021/11/11 07:32:49;;;;;;;38.83;20.48;;;;;;;9.76;90.57;102538.13;4957261;29;20031;-68
2021/11/11 07:35:16;;;;;;;41.05;20.00;;;;;;;9.81;89.94;102538.06;4957237;28;20030;-65
2021/11/11 07:37:43;;;;;;;45.80;21.67;;;;;;;9.87;90.26;102543.25;4976011;28;20467;-67
2021/11/11 07:40:11;;;;;;;36.78;20.00;;;;;;;9.88;90.10;102549.41;4972588;28;20027;-66
2021/11/11 07:42:36;;;;;;;32.17;18.63;;;;;;;9.89;89.93;102546.75;4966317;28;20134;-65
2021/11/11 07:45:04;;;;;;;39.53;19.05;;;;;;;9.86;89.90;102546.81;4976709;28;20110;-68
2021/11/11 07:47:29;;;;;;;40.97;20.27;;;;;;;9.82;90.57;102545.97;4961227;28;20035;-68
2021/11/11 07:49:57;;;;;;;35.55;19.75;;;;;;;9.80;90.76;102542.47;4957195;29;20038;-68
2021/11/11 07:52:24;;;;;;;35.67;17.60;;;;;;;9.88;90.37;102544.13;4957119;28;20050;-68
2021/11/11 07:54:49;;;;;;;37.30;20.13;;;;;;;9.86;90.81;102551.19;4956960;29;20487;-66
2021/11/11 07:57:15;;;;;;;35.83;19.30;;;;;;;9.90;90.71;102552.91;4958595;28;20062;-67
2021/11/11 07:59:41;;;;;;;41.05;19.70;;;;;;;9.95;90.71;102554.59;4957256;29;20031;-67
2021/11/11 08:02:07;;;;;;;40.22;20.83;;;;;;;9.98;90.43;102553.69;4968350;28;20042;-66
2021/11/11 08:04:32;;;;;;;51.17;22.88;;;;;;;9.95;90.82;102551.97;4975897;28;20470;-66
2021/11/11 08:06:58;;;;;;;51.47;23.77;;;;;;;9.98;90.92;102549.25;4975185;28;20035;-68
2021/11/11 08:09:23;;;;;;;37.75;20.83;;;;;;;10.03;91.12;102545.69;4958391;28;20032;-67
2021/11/11 08:11:49;;;;;;;38.80;20.85;;;;;;;10.05;91.57;102536.81;4961131;29;20033;-65
2021/11/11 08:14:15;;;;;;;40.10;20.10;;;;;;;10.13;90.86;102536.69;4961514;29;20027;-67
2021/11/11 08:16:41;;;;;;;37.90;20.30;;;;;;;10.14;90.97;102539.31;4960717;29;20035;-67
2021/11/11 08:19:06;;;;;;;49.17;20.73;;;;;;;10.21;91.02;102544.53;4969001;28;20039;-66
2021/11/11 08:21:32;;;;;;;41.50;20.23;;;;;;;10.25;90.75;102539.13;4975432;28;20030;-66
2021/11/11 08:23:58;;;;;;;41.00;21.42;;;;;;;10.29;90.90;102539.97;4975889;28;20050;-66
2021/11/11 08:26:23;;;;;;;32.53;19.52;;;;;;;10.32;90.45;102530.19;4975278;28;20081;-66
2021/11/11 08:28:49;;;;;;;38.80;20.88;;;;;;;10.39;90.87;102525.69;4970399;28;20030;-66
2021/11/11 08:31:14;;;;;;;38.65;20.75;;;;;;;10.43;90.59;102535.34;4965079;28;20380;-66
2021/11/11 08:33:39;;;;;;;42.05;21.58;;;;;;;10.51;90.61;102524.59;4975413;28;20379;-65
2021/11/11 08:36:05;;;;;;;42.72;21.95;;;;;;;10.52;90.44;102534.31;4972336;28;20023;-65
2021/11/11 08:38:30;;;;;;;42.08;21.45;;;;;;;10.54;90.66;102526.31;4955555;29;20483;-65
2021/11/11 08:40:56;;;;;;;42.67;22.25;;;;;;;10.56;91.01;102533.38;4955837;29;20031;-66
2021/11/11 08:43:23;;;;;;;43.00;22.55;;;;;;;10.55;91.38;102544.88;4972741;28;20463;-65
2021/11/11 08:45:49;;;;;;;48.22;24.00;;;;;;;10.57;91.84;102542.19;4968417;28;20035;-66
2021/11/11 08:48:15;;;;;;;52.55;28.60;;;;;;;10.59;92.14;102537.75;4965174;28;20110;-67
2021/11/11 08:50:42;;;;;;;38.70;22.92;;;;;;;10.60;91.96;102547.41;4956591;28;20022;-67
2021/11/11 08:53:09;;;;;;;47.08;24.15;;;;;;;10.64;92.41;102539.41;4974587;28;20395;-66
2021/11/11 08:55:36;;;;;;;57.40;25.52;;;;;;;10.63;92.30;102548.25;4960176;28;20484;-66
2021/11/11 08:58:03;;;;;;;41.90;22.92;;;;;;;10.59;92.38;102543.91;4973553;28;20468;-66
2021/11/11 09:00:32;;;;;;;46.47;24.50;;;;;;;10.55;92.68;102539.56;4973808;28;20019;-67
2021/11/11 09:03:00;;;;;;;48.03;25.25;;;;;;;10.58;93.01;102541.28;4974361;28;20027;-65
2021/11/11 09:05:30;;;;;;;39.45;24.65;;;;;;;10.65;92.94;102540.25;4971168;28;20475;-65
2021/11/11 09:07:55;;;;;;;46.58;24.67;;;;;;;10.68;92.84;102540.22;4971606;28;20034;-66
2021/11/11 09:10:21;;;;;;;45.10;24.00;;;;;;;10.68;92.83;102540.22;4956405;28;20038;-63
2021/11/11 09:12:50;;;;;;;47.83;24.60;;;;;;;10.72;92.89;102546.34;4971718;28;20026;-65
2021/11/11 09:15:18;;;;;;;43.55;23.98;;;;;;;10.77;92.89;102547.13;4974649;28;20101;-64
2021/11/11 09:17:46;;;;;;;41.63;24.75;;;;;;;10.81;92.81;102547.03;4971609;28;20019;-67
2021/11/11 09:20:13;;;;;;;39.90;24.08;;;;;;;10.82;92.45;102550.56;4973670;28;20081;-65
2021/11/11 09:22:39;;;;;;;43.75;25.25;;;;;;;10.85;92.60;102545.22;4965269;28;20043;-65
2021/11/11 09:25:07;;;;;;;41.70;24.95;;;;;;;10.90;92.45;102555.72;4955234;29;20066;-67
2021/11/11 09:27:42;;;;;;;49.65;27.45;;;;;;;10.89;92.60;102553.97;5043686;27;2059931;-66
2021/11/11 09:30:11;;;;;;;43.38;26.33;;;;;;;10.87;92.54;102550.47;5088336;28;20442;-68
2021/11/11 09:32:37;;;;;;;51.47;26.50;;;;;;;10.84;92.78;102558.50;5082512;28;20059;-66
2021/11/11 09:35:04;;;;;;;48.25;25.88;;;;;;;10.80;93.03;102558.53;5086545;28;20051;-66
2021/11/11 09:37:30;;;;;;;51.83;27.00;;;;;;;10.82;93.09;102555.88;5081374;28;20033;-65
2021/11/11 09:39:55;;;;;;;47.78;24.88;;;;;;;10.84;93.34;102564.66;5087972;28;20023;-66
2021/11/11 09:42:22;;;;;;;44.33;25.15;;;;;;;10.84;93.31;102562.00;5087194;28;20437;-64
2021/11/11 09:44:48;;;;;;;42.75;23.60;;;;;;;10.79;93.36;102556.81;5086771;28;20051;-66
2021/11/11 09:47:15;;;;;;;42.63;24.77;;;;;;;10.76;93.65;102551.53;5069111;28;20509;-67
2021/11/11 09:49:41;;;;;;;40.22;22.75;;;;;;;10.77;93.29;102563.91;5069078;28;20098;-68
2021/11/11 09:52:06;;;;;;;45.85;24.00;;;;;;;10.77;93.40;102555.09;5068411;28;20465;-68
2021/11/11 09:59:42;;;;;;;44.05;25.05;;;;;;;10.89;93.45;102554.84;5087076;28;20038;-68
2021/11/11 10:02:10;;;;;;;48.95;27.75;;;;;;;10.88;93.63;102560.19;5089368;28;20476;-68
2021/11/11 10:04:38;;;;;;;82.80;34.42;;;;;;;10.99;93.76;102556.41;5088866;28;20056;-65
2021/11/11 10:07:04;;;;;;;52.83;27.50;;;;;;;11.13;93.15;102557.94;5088459;28;20114;-65
2021/11/11 10:09:29;;;;;;;46.42;27.15;;;;;;;11.17;92.49;102549.00;5088769;28;20096;-66
2021/11/11 10:12:02;;;;;;;47.17;28.05;;;;;;;11.20;92.06;102554.28;5088500;28;20016;-66
2021/11/11 10:14:28;;;;;;;48.33;27.15;;;;;;;11.23;91.85;102558.66;5088358;28;20016;-66
2021/11/11 10:17:01;;;;;;;45.30;26.67;;;;;;;11.28;91.69;102560.28;5087492;28;20016;-65
2021/11/11 10:19:28;;;;;;;44.70;26.33;;;;;;;11.22;91.87;102565.72;5086580;28;20028;-64
2021/11/11 10:22:33;;;;;;;49.05;27.23;;;;;;;11.17;91.91;102566.72;5079241;28;20464;-65
2021/11/11 10:24:56;;;;;;;51.65;27.10;;;;;;;11.03;92.54;102570.50;5067789;28;20039;-64
2021/11/11 10:30:05;;;;;;;54.22;29.25;;;;;;;10.95;93.02;102567.97;5068286;28;20059;-65
2021/11/11 10:32:55;;;;;;;51.03;26.88;;;;;;;10.92;93.00;102573.34;5068362;28;20043;-65
2021/11/11 10:35:26;;;;;;;49.83;26.13;;;;;;;10.89;93.46;102562.78;5067022;28;20033;-65
2021/11/11 10:38:16;;;;;;;52.70;27.50;;;;;;;10.90;93.17;102569.84;5062232;28;20508;-64
2021/11/11 10:40:45;;;;;;;55.78;27.00;;;;;;;10.92;92.95;102568.06;5056418;28;20037;-65
2021/11/11 10:43:21;;;;;;;56.42;26.13;;;;;;;10.98;92.60;102557.34;5053799;28;20483;-64
2021/11/11 10:45:49;;;;;;;46.22;25.80;;;;;;;11.01;92.62;102548.47;5054169;28;20485;-64
2021/11/11 10:48:17;;;;;;;56.83;27.15;;;;;;;11.02;92.29;102557.28;5057114;28;20032;-65
2021/11/11 10:50:46;;;;;;;52.03;25.77;;;;;;;11.05;92.34;102554.53;5060286;28;20114;-68
2021/11/11 10:53:15;;;;;;;56.70;27.92;;;;;;;11.11;91.67;102560.63;5055662;28;20215;-64
2021/11/11 10:55:42;;;;;;;84.30;33.83;;;;;;;11.15;91.73;102556.09;5045026;28;20046;-65
2021/11/11 10:58:18;;;;;;;52.53;26.00;;;;;;;11.15;91.52;102551.69;5054448;28;20029;-66
2021/11/11 11:00:46;;;;;;;49.70;25.02;;;;;;;11.18;90.95;102553.41;5059382;28;20048;-67
2021/11/11 11:03:17;;;;;;;42.45;24.63;;;;;;;11.21;90.92;102552.47;5074142;28;20040;-66
2021/11/11 11:05:53;;;;;;;69.30;29.00;;;;;;;11.18;90.91;102556.06;5072472;28;20382;-65
2021/11/11 11:08:30;;;;;;;57.92;26.98;;;;;;;11.18;90.65;102561.38;5061119;28;20052;-66
2021/11/11 11:11:04;;;;;;;42.75;24.13;;;;;;;11.18;90.51;102552.53;5070213;28;20024;-66
2021/11/11 11:13:48;;;;;;;40.00;24.05;;;;;;;11.14;90.32;102552.59;5059240;28;20051;-66
2021/11/11 11:16:16;;;;;;;40.65;24.55;;;;;;;11.15;90.54;102559.66;5053673;28;20029;-66
2021/11/11 11:18:57;;;;;;;41.67;23.98;;;;;;;11.15;90.87;102556.09;5053903;28;20025;-66
2021/11/11 11:21:30;;;;;;;40.88;23.88;;;;;;;11.17;90.54;102558.75;5053486;28;20113;-64
2021/11/11 11:24:01;;;;;;;43.45;23.63;;;;;;;11.24;90.19;102547.09;5061877;28;20098;-66
2021/11/11 11:26:30;;;;;;;46.42;24.33;;;;;;;11.25;90.18;102546.22;5054532;28;20393;-67
2021/11/11 11:29:03;;;;;;;45.10;24.77;;;;;;;11.24;90.38;102547.09;5052704;28;20492;-67
2021/11/11 11:31:46;;;;;;;39.53;23.33;;;;;;;11.27;90.44;102545.28;5067476;28;20464;-67
2021/11/11 11:34:17;;;;;;;43.90;24.42;;;;;;;11.33;90.23;102546.94;5067912;28;20111;-67
2021/11/11 11:36:52;;;;;;;41.60;25.70;;;;;;;11.31;90.35;102546.09;5052838;28;20037;-66
2021/11/11 11:39:31;;;;;;;43.00;25.38;;;;;;;11.35;89.95;102549.56;5064903;28;20078;-66
2021/11/11 11:42:02;;;;;;;40.03;24.17;;;;;;;11.30;90.47;102539.91;5057432;28;20467;-67
2021/11/11 11:44:52;;;;;;;42.65;24.67;;;;;;;11.37;90.32;102545.97;5060963;28;20052;-65
2021/11/11 11:47:30;;;;;;;43.42;23.80;;;;;;;11.41;89.73;102542.34;4971801;28;20141;-67